createdAt,value
2018-02-27T00:02:10.691Z,5.07
2018-02-27T00:04:38.159Z,5.33
2018-02-27T00:07:05.591Z,4.83
2018-02-27T00:09:33.037Z,5.30
2018-02-27T00:12:00.479Z,5.93
2018-02-27T00:14:27.920Z,4.73
2018-02-27T00:16:55.378Z,5.83
2018-02-27T00:19:22.807Z,5.73
2018-02-27T00:21:50.247Z,4.77
2018-02-27T00:24:17.683Z,5.77
2018-02-27T00:26:45.131Z,5.73
2018-02-27T00:29:13.343Z,5.50
2018-02-27T00:31:40.790Z,5.50
2018-02-27T00:34:08.991Z,4.63
2018-02-27T00:36:36.446Z,4.60
2018-02-27T00:39:04.648Z,5.20
2018-02-27T00:41:32.105Z,4.10
2018-02-27T00:44:00.299Z,4.93
2018-02-27T00:46:27.743Z,4.53
2018-02-27T00:48:55.952Z,4.20
2018-02-27T00:51:23.395Z,4.73
2018-02-27T00:53:51.595Z,4.63
2018-02-27T00:56:19.806Z,4.23
2018-02-27T00:58:47.240Z,4.40
2018-02-27T01:01:15.483Z,4.73
2018-02-27T01:03:42.919Z,4.33
2018-02-27T01:06:10.382Z,4.57
2018-02-27T01:08:37.815Z,4.17
2018-02-27T01:11:05.255Z,5.33
2018-02-27T01:13:32.711Z,5.20
2018-02-27T01:16:00.146Z,4.03
2018-02-27T01:18:28.353Z,4.57
2018-02-27T01:20:55.782Z,4.43
2018-02-27T01:23:23.997Z,4.37
2018-02-27T01:25:51.429Z,3.97
2018-02-27T01:28:18.870Z,4.20
2018-02-27T01:30:46.306Z,4.37
2018-02-27T01:33:13.750Z,4.27
2018-02-27T01:35:41.955Z,4.53
2018-02-27T01:38:09.403Z,3.90
2018-02-27T01:40:37.608Z,4.50
2018-02-27T01:43:05.047Z,4.03
2018-02-27T01:45:33.246Z,4.40
2018-02-27T01:48:01.455Z,3.90
2018-02-27T01:50:28.887Z,3.80
2018-02-27T01:52:57.104Z,3.90
2018-02-27T01:55:24.539Z,4.00
2018-02-27T01:57:51.979Z,4.67
2018-02-27T02:00:19.411Z,3.37
2018-02-27T02:02:46.855Z,3.77
2018-02-27T02:05:15.895Z,4.30
2018-02-27T02:07:43.331Z,4.40
2018-02-27T02:10:11.535Z,3.90
2018-02-27T02:12:38.980Z,4.37
2018-02-27T02:15:07.178Z,4.40
2018-02-27T02:17:34.619Z,5.17
2018-02-27T02:20:02.063Z,3.87
2018-02-27T02:22:29.509Z,4.60
2018-02-27T02:24:56.938Z,4.00
2018-02-27T02:27:25.159Z,3.90
2018-02-27T02:29:52.595Z,4.03
2018-02-27T02:32:20.816Z,3.67
2018-02-27T02:34:48.248Z,3.83
2018-02-27T02:37:16.450Z,3.30
2018-02-27T02:39:43.896Z,4.30
2018-02-27T02:42:26.982Z,4.20
2018-02-27T02:44:54.465Z,3.73
2018-02-27T02:47:21.919Z,3.53
2018-02-27T02:49:49.362Z,3.23
2018-02-27T02:52:16.800Z,4.47
2018-02-27T02:54:44.247Z,4.00
2018-02-27T02:57:12.461Z,4.40
2018-02-27T02:59:40.668Z,3.90
2018-02-27T03:02:08.109Z,4.50
2018-02-27T03:04:36.319Z,4.70
2018-02-27T03:07:03.759Z,4.10
2018-02-27T03:09:31.207Z,4.73
2018-02-27T03:11:58.646Z,4.37
2018-02-27T03:14:26.095Z,4.00
2018-02-27T03:16:53.539Z,5.23
2018-02-27T03:19:21.755Z,3.30
2018-02-27T03:21:49.196Z,4.80
2018-02-27T03:24:17.412Z,5.37
2018-02-27T03:26:44.847Z,4.20
2018-02-27T03:29:13.059Z,4.37
2018-02-27T03:31:40.503Z,4.00
2018-02-27T03:34:08.711Z,5.00
2018-02-27T03:36:36.146Z,4.53
2018-02-27T03:39:03.601Z,5.07
2018-02-27T03:41:31.035Z,4.10
2018-02-27T03:43:58.475Z,5.20
2018-02-27T03:46:26.674Z,4.63
2018-02-27T03:48:54.127Z,4.10
2018-02-27T03:51:22.327Z,5.00
2018-02-27T03:53:49.771Z,5.70
2018-02-27T03:56:17.992Z,4.97
2018-02-27T03:58:45.445Z,3.90
2018-02-27T04:01:12.888Z,4.97
2018-02-27T04:03:41.329Z,5.10
2018-02-27T04:06:08.768Z,5.50
2018-02-27T04:08:36.206Z,5.07
2018-02-27T04:11:03.658Z,4.57
2018-02-27T04:13:31.104Z,4.80
2018-02-27T04:15:58.543Z,4.37
2018-02-27T04:18:25.994Z,5.27
2018-02-27T04:20:54.200Z,4.90
2018-02-27T04:23:21.644Z,4.47
2018-02-27T04:25:49.858Z,4.97
2018-02-27T04:28:17.306Z,4.40
2018-02-27T04:30:45.510Z,5.37
2018-02-27T04:33:12.956Z,4.97
2018-02-27T04:35:41.151Z,5.47
2018-02-27T04:38:08.599Z,5.40
2018-02-27T04:40:36.039Z,5.90
2018-02-27T04:43:03.478Z,4.90
2018-02-27T04:45:30.923Z,5.40
2018-02-27T04:47:58.354Z,5.00
2018-02-27T04:50:26.547Z,5.53
2018-02-27T04:52:53.983Z,5.67
2018-02-27T04:55:21.451Z,5.43
2018-02-27T04:57:48.888Z,5.30
2018-02-27T05:00:16.337Z,5.33
2018-02-27T05:02:44.543Z,4.80
2018-02-27T05:05:11.995Z,5.50
2018-02-27T05:07:40.199Z,4.30
2018-02-27T05:10:07.645Z,5.90
2018-02-27T05:12:35.856Z,5.70
2018-02-27T05:15:03.299Z,6.30
2018-02-27T05:17:31.549Z,5.97
2018-02-27T05:19:58.983Z,5.33
2018-02-27T05:22:26.432Z,5.73
2018-02-27T05:24:54.662Z,4.50
2018-02-27T05:27:22.099Z,6.10
2018-02-27T05:29:49.546Z,5.37
2018-02-27T05:32:17.752Z,6.90
2018-02-27T05:34:45.197Z,5.13
2018-02-27T05:37:13.408Z,5.40
2018-02-27T05:39:40.860Z,5.57
2018-02-27T05:42:09.069Z,6.27
2018-02-27T05:44:36.511Z,5.83
2018-02-27T05:47:04.711Z,6.27
2018-02-27T05:49:32.158Z,6.77
2018-02-27T05:52:00.362Z,5.50
2018-02-27T05:54:27.812Z,6.77
2018-02-27T05:56:56.015Z,6.90
2018-02-27T05:59:23.468Z,5.27
2018-02-27T06:01:51.671Z,5.87
2018-02-27T06:04:19.112Z,5.10
2018-02-27T06:06:46.560Z,5.80
2018-02-27T06:09:14.001Z,5.97
2018-02-27T06:11:41.455Z,6.47
2018-02-27T06:14:08.887Z,5.60
2018-02-27T06:16:36.335Z,5.50
2018-02-27T06:19:03.793Z,6.13
2018-02-27T06:21:31.228Z,6.47
2018-02-27T06:23:58.667Z,5.67
2018-02-27T06:26:26.879Z,7.30
2018-02-27T06:28:54.319Z,7.20
2018-02-27T06:31:21.776Z,5.90
2018-02-27T06:33:49.198Z,8.10
2018-02-27T06:36:16.644Z,5.60
2018-02-27T06:38:44.855Z,6.00
2018-02-27T06:41:12.292Z,7.73
2018-02-27T06:43:40.505Z,5.67
2018-02-27T06:46:07.952Z,5.70
2018-02-27T06:48:35.422Z,5.90
2018-02-27T06:51:02.860Z,6.47
2018-02-27T06:53:30.297Z,6.83
2018-02-27T06:55:57.738Z,6.17
2018-02-27T06:58:25.184Z,6.37
2018-02-27T07:00:53.400Z,5.40
2018-02-27T07:03:20.844Z,7.57
2018-02-27T07:05:49.055Z,7.13
2018-02-27T07:08:16.515Z,7.03
2018-02-27T07:10:43.964Z,6.80
2018-02-27T07:13:12.175Z,6.00
2018-02-27T07:15:39.679Z,6.80
2018-02-27T07:18:07.129Z,7.17
2018-02-27T07:20:34.576Z,6.27
2018-02-27T07:23:02.028Z,6.13
2018-02-27T07:25:30.235Z,7.10
2018-02-27T07:27:57.686Z,6.17
2018-02-27T07:30:26.680Z,6.00
2018-02-27T07:32:54.897Z,7.43
2018-02-27T07:35:22.367Z,6.17
2018-02-27T07:37:50.558Z,7.30
2018-02-27T07:40:17.995Z,7.73
2018-02-27T07:42:46.208Z,7.30
2018-02-27T07:45:13.643Z,7.03
2018-02-27T07:47:41.864Z,8.20
2018-02-27T07:50:09.304Z,8.07
2018-02-27T07:52:37.574Z,7.57
2018-02-27T07:55:04.970Z,6.27
2018-02-27T07:57:32.416Z,7.40
2018-02-27T08:00:00.628Z,7.50
2018-02-27T08:02:28.085Z,8.20
2018-02-27T08:04:56.279Z,8.07
2018-02-27T08:07:23.728Z,7.30
2018-02-27T08:09:51.934Z,8.57
2018-02-27T08:12:19.388Z,7.20
2018-02-27T08:14:47.591Z,6.77
2018-02-27T08:17:15.051Z,8.73
2018-02-27T08:19:42.491Z,7.40
2018-02-27T08:22:09.944Z,9.00
2018-02-27T08:24:37.392Z,7.90
2018-02-27T08:27:04.848Z,7.33
2018-02-27T08:29:32.283Z,7.90
2018-02-27T08:32:00.501Z,8.23
2018-02-27T08:34:27.944Z,7.90
2018-02-27T08:36:55.392Z,9.43
2018-02-27T08:39:23.597Z,9.00
2018-02-27T08:41:51.047Z,8.20
2018-02-27T08:44:19.253Z,8.47
2018-02-27T08:46:47.476Z,8.60
2018-02-27T08:49:15.683Z,7.87
2018-02-27T08:51:43.128Z,7.40
2018-02-27T08:54:10.580Z,7.93
2018-02-27T08:56:38.016Z,9.00
2018-02-27T08:59:06.236Z,8.93
2018-02-27T09:01:33.676Z,7.00
2018-02-27T09:04:01.900Z,7.53
2018-02-27T09:06:29.339Z,8.57
2018-02-27T09:08:57.551Z,8.27
2018-02-27T09:11:25.003Z,8.47
2018-02-27T09:13:52.450Z,7.30
2018-02-27T09:16:19.884Z,9.10
2018-02-27T09:18:47.323Z,9.03
2018-02-27T09:21:14.779Z,9.00
2018-02-27T09:23:42.229Z,8.47
2018-02-27T09:26:10.435Z,7.80
2018-02-27T09:28:37.883Z,8.40
2018-02-27T09:31:06.090Z,9.07
2018-02-27T09:33:33.536Z,9.47
2018-02-27T09:36:01.736Z,8.40
2018-02-27T09:38:29.241Z,8.17
2018-02-27T09:40:57.384Z,9.43
2018-02-27T09:43:24.828Z,7.80
2018-02-27T09:45:52.362Z,8.27
2018-02-27T09:48:20.528Z,9.67
2018-02-27T09:50:47.974Z,10.70
2018-02-27T09:53:16.193Z,8.20
2018-02-27T09:55:43.623Z,9.00
2018-02-27T09:58:11.839Z,8.90
2018-02-27T10:00:39.284Z,9.13
2018-02-27T10:03:06.728Z,8.57
2018-02-27T10:05:34.163Z,9.80
2018-02-27T10:08:01.603Z,8.17
2018-02-27T10:10:29.045Z,8.80
2018-02-27T10:12:57.259Z,8.53
2018-02-27T10:15:24.687Z,10.60
2018-02-27T10:17:52.906Z,8.80
2018-02-27T10:20:20.335Z,7.73
2018-02-27T10:22:47.775Z,8.90
2018-02-27T10:25:15.216Z,10.03
2018-02-27T10:27:42.652Z,8.93
2018-02-27T10:30:10.871Z,9.03
2018-02-27T10:32:38.303Z,8.50
2018-02-27T10:35:06.507Z,8.77
2018-02-27T10:37:33.951Z,10.80
2018-02-27T10:40:01.392Z,9.80
2018-02-27T10:42:28.824Z,9.73
2018-02-27T10:44:56.260Z,9.23
2018-02-27T10:47:23.699Z,9.17
2018-02-27T10:49:51.140Z,9.17
2018-02-27T10:52:18.583Z,10.07
2018-02-27T10:54:46.787Z,9.80
2018-02-27T10:57:14.245Z,9.37
2018-02-27T10:59:42.447Z,11.03
2018-02-27T11:02:09.892Z,8.67
2018-02-27T11:04:38.091Z,9.00
2018-02-27T11:07:05.540Z,8.90
2018-02-27T11:09:33.748Z,11.40
2018-02-27T11:12:01.186Z,9.87
2018-02-27T11:14:29.462Z,9.17
2018-02-27T11:16:56.895Z,8.97
2018-02-27T11:19:24.338Z,8.20
2018-02-27T11:21:51.775Z,9.80
2018-02-27T11:24:19.982Z,10.40
2018-02-27T11:26:47.436Z,8.23
2018-02-27T11:29:15.647Z,7.57
2018-02-27T11:31:43.096Z,7.87
2018-02-27T11:34:11.304Z,7.80
2018-02-27T11:36:38.747Z,9.00
2018-02-27T11:39:06.987Z,9.97
2018-02-27T11:41:34.420Z,9.63
2018-02-27T11:44:01.856Z,9.90
2018-02-27T11:46:29.304Z,10.40
2018-02-27T11:48:56.744Z,10.20
2018-02-27T11:51:24.212Z,10.70
2018-02-27T11:53:51.638Z,9.53
2018-02-27T11:56:19.849Z,10.50
2018-02-27T11:58:47.287Z,10.30
2018-02-27T12:01:14.760Z,10.10
2018-02-27T12:03:42.199Z,9.70
2018-02-27T12:06:09.632Z,9.80
2018-02-27T12:08:37.071Z,10.43
2018-02-27T12:11:05.272Z,9.10
2018-02-27T12:13:32.722Z,10.60
2018-02-27T12:16:00.924Z,10.07
2018-02-27T12:18:32.179Z,9.40
2018-02-27T12:20:59.619Z,10.57
2018-02-27T12:23:27.059Z,10.10
2018-02-27T12:25:54.496Z,8.67
2018-02-27T12:28:22.705Z,9.30
2018-02-27T12:30:50.136Z,8.70
2018-02-27T12:33:17.575Z,9.47
2018-02-27T12:35:45.016Z,9.43
2018-02-27T12:38:12.465Z,9.10
2018-02-27T12:40:39.898Z,10.70
2018-02-27T12:43:07.335Z,9.20
2018-02-27T12:45:34.776Z,9.97
2018-02-27T12:48:02.212Z,8.33
2018-02-27T12:50:29.647Z,9.03
2018-02-27T12:52:57.104Z,10.13
2018-02-27T12:55:24.544Z,10.10
2018-02-27T12:57:51.979Z,9.20
2018-02-27T13:00:19.416Z,9.90
2018-02-27T13:02:46.870Z,9.33
2018-02-27T13:05:14.308Z,9.13
2018-02-27T13:07:41.735Z,7.73
2018-02-27T13:10:09.179Z,9.73
2018-02-27T13:12:36.623Z,9.40
2018-02-27T13:15:04.836Z,9.20
2018-02-27T13:17:33.035Z,8.83
2018-02-27T13:20:01.239Z,8.97
2018-02-27T13:22:28.681Z,9.07
2018-02-27T13:24:56.124Z,8.57
2018-02-27T13:27:23.555Z,9.00
2018-02-27T13:29:51.007Z,10.63
2018-02-27T13:32:18.441Z,9.67
2018-02-27T13:34:45.951Z,9.37
2018-02-27T13:37:13.379Z,9.50
2018-02-27T13:39:41.592Z,8.23
2018-02-27T13:42:09.792Z,8.37
2018-02-27T13:44:38.008Z,8.80
2018-02-27T13:47:05.444Z,8.43
2018-02-27T13:49:32.888Z,9.20
2018-02-27T13:52:00.332Z,8.90
2018-02-27T13:54:28.532Z,9.80
2018-02-27T13:56:56.743Z,9.63
2018-02-27T13:59:24.180Z,9.00
2018-02-27T14:01:51.607Z,9.43
2018-02-27T14:04:19.066Z,9.03
2018-02-27T14:06:47.269Z,9.37
2018-02-27T14:09:14.724Z,8.33
2018-02-27T14:11:42.159Z,9.67
2018-02-27T14:14:09.603Z,8.37
2018-02-27T14:16:37.810Z,9.77
2018-02-27T14:19:05.248Z,7.90
2018-02-27T14:21:32.696Z,8.90
2018-02-27T14:24:00.127Z,9.00
2018-02-27T14:26:27.617Z,8.20
2018-02-27T14:28:55.000Z,12.67
2018-02-27T14:31:23.236Z,8.40
2018-02-27T14:33:50.685Z,9.13
2018-02-27T14:36:18.895Z,9.20
2018-02-27T14:38:46.344Z,9.37
2018-02-27T14:41:13.796Z,9.10
2018-02-27T14:43:41.239Z,8.40
2018-02-27T14:46:08.681Z,10.67
2018-02-27T14:48:36.119Z,9.50
2018-02-27T14:51:03.560Z,9.73
2018-02-27T14:53:31.765Z,10.80
2018-02-27T14:55:59.980Z,9.43
2018-02-27T14:58:27.429Z,7.70
2018-02-27T15:00:54.880Z,7.70
2018-02-27T15:03:22.324Z,8.50
2018-02-27T15:05:49.769Z,8.50
2018-02-27T15:08:17.204Z,8.27
2018-02-27T15:10:44.652Z,8.67
2018-02-27T15:13:12.091Z,8.33
2018-02-27T15:15:39.531Z,8.77
2018-02-27T15:18:07.025Z,8.90
2018-02-27T15:20:35.183Z,9.87
2018-02-27T15:23:03.419Z,8.60
2018-02-27T15:25:30.828Z,7.97
2018-02-27T15:27:58.280Z,7.50
2018-02-27T15:30:26.123Z,9.17
2018-02-27T15:32:54.331Z,8.03
2018-02-27T15:35:22.536Z,10.47
2018-02-27T15:37:49.979Z,8.57
2018-02-27T15:40:17.415Z,8.70
2018-02-27T15:42:44.860Z,9.20
2018-02-27T15:45:13.068Z,8.83
2018-02-27T15:47:41.279Z,8.23
2018-02-27T15:50:08.725Z,10.10
2018-02-27T15:52:36.172Z,9.40
2018-02-27T15:55:03.598Z,8.00
2018-02-27T15:57:31.809Z,8.43
2018-02-27T16:00:00.007Z,7.10
2018-02-27T16:02:28.211Z,8.13
2018-02-27T16:04:55.657Z,8.17
2018-02-27T16:07:23.096Z,8.57
2018-02-27T16:09:50.544Z,8.50
2018-02-27T16:12:18.744Z,8.70
2018-02-27T16:14:46.183Z,8.80
2018-02-27T16:17:13.629Z,8.53
2018-02-27T16:19:41.071Z,7.53
2018-02-27T16:22:09.278Z,7.33
2018-02-27T16:24:37.483Z,7.23
2018-02-27T16:27:04.972Z,7.53
2018-02-27T16:29:32.372Z,8.30
2018-02-27T16:31:59.811Z,7.80
2018-02-27T16:34:28.041Z,7.80
2018-02-27T16:36:55.472Z,7.90
2018-02-27T16:39:22.920Z,6.60
2018-02-27T16:41:50.361Z,7.87
2018-02-27T16:44:18.575Z,7.73
2018-02-27T16:46:46.008Z,8.77
2018-02-27T16:49:13.452Z,8.40
2018-02-27T16:51:40.932Z,8.00
2018-02-27T16:54:08.379Z,6.70
2018-02-27T16:56:36.580Z,7.67
2018-02-27T16:59:04.804Z,9.03
2018-02-27T17:01:32.244Z,7.00
2018-02-27T17:04:00.453Z,9.37
2018-02-27T17:06:28.655Z,8.60
2018-02-27T17:08:56.096Z,9.13
2018-02-27T17:11:23.541Z,8.70
2018-02-27T17:13:50.983Z,11.73
2018-02-27T17:16:19.195Z,6.93
2018-02-27T17:18:46.631Z,7.70
2018-02-27T17:21:14.072Z,8.60
2018-02-27T17:23:41.503Z,8.30
2018-02-27T17:26:08.943Z,7.70
2018-02-27T17:28:36.384Z,8.50
2018-02-27T17:31:04.592Z,7.97
2018-02-27T17:33:32.792Z,7.87
2018-02-27T17:36:00.255Z,7.97
2018-02-27T17:38:27.684Z,8.20
2018-02-27T17:40:55.123Z,13.90
2018-02-27T17:43:23.330Z,9.10
2018-02-27T17:45:51.535Z,8.20
2018-02-27T17:48:18.980Z,8.67
2018-02-27T17:50:46.433Z,9.77
2018-02-27T17:53:13.890Z,9.77
2018-02-27T17:55:41.720Z,7.73
2018-02-27T17:58:09.957Z,6.90
2018-02-27T18:00:38.171Z,7.67
2018-02-27T18:03:05.607Z,8.43
2018-02-27T18:05:34.974Z,8.90
2018-02-27T18:08:05.190Z,8.30
2018-02-27T18:10:32.620Z,7.63
2018-02-27T18:13:00.065Z,8.50
2018-02-27T18:15:28.279Z,9.03
2018-02-27T18:17:55.752Z,8.17
2018-02-27T18:20:25.116Z,8.70
2018-02-27T18:22:52.544Z,9.00
2018-02-27T18:25:20.756Z,9.67
2018-02-27T18:27:48.208Z,10.20
2018-02-27T18:30:15.768Z,12.10
2018-02-27T18:32:45.235Z,9.20
2018-02-27T18:35:12.674Z,8.90
2018-02-27T18:37:40.099Z,9.10
2018-02-27T18:40:08.335Z,10.13
2018-02-27T18:42:35.772Z,8.73
2018-02-27T18:45:03.981Z,8.47
2018-02-27T18:47:32.187Z,7.00
2018-02-27T18:49:59.634Z,7.07
2018-02-27T18:52:27.068Z,8.23
2018-02-27T18:54:54.503Z,7.50
2018-02-27T18:57:21.956Z,9.17
2018-02-27T18:59:49.387Z,8.30
2018-02-27T19:02:16.824Z,9.17
2018-02-27T19:04:44.264Z,9.00
2018-02-27T19:07:11.712Z,10.80
2018-02-27T19:09:39.953Z,9.00
2018-02-27T19:12:07.404Z,10.37
2018-02-27T19:14:34.915Z,7.53
2018-02-27T19:17:02.360Z,8.13
2018-02-27T19:19:30.563Z,8.47
2018-02-27T19:21:58.017Z,8.70
2018-02-27T19:24:25.456Z,10.00
2018-02-27T19:26:52.912Z,9.97
2018-02-27T19:29:21.116Z,8.60
2018-02-27T19:31:48.573Z,8.50
2018-02-27T19:34:16.790Z,9.93
2018-02-27T19:36:44.236Z,10.60
2018-02-27T19:39:11.672Z,9.70
2018-02-27T19:41:39.123Z,11.20
2018-02-27T19:44:06.567Z,10.13
2018-02-27T19:46:34.024Z,10.20
2018-02-27T19:49:01.468Z,8.77
2018-02-27T19:51:29.777Z,9.43
2018-02-27T19:53:57.228Z,9.90
2018-02-27T19:56:24.680Z,10.70
2018-02-27T19:58:52.132Z,9.30
2018-02-27T20:01:19.563Z,9.43
2018-02-27T20:03:47.243Z,9.20
2018-02-27T20:06:14.684Z,8.00
2018-02-27T20:08:42.135Z,9.40
2018-02-27T20:11:09.575Z,9.10
2018-02-27T20:13:37.201Z,9.50
2018-02-27T20:16:04.689Z,9.17
2018-02-27T20:18:32.128Z,9.40
2018-02-27T20:20:59.705Z,9.43
2018-02-27T20:23:32.961Z,9.80
2018-02-27T20:26:01.168Z,8.70
2018-02-27T20:28:34.247Z,8.47
2018-02-27T20:31:01.789Z,8.23
2018-02-27T20:33:29.369Z,8.77
2018-02-27T20:35:56.867Z,7.30
2018-02-27T20:38:29.951Z,11.53
2018-02-27T20:40:57.400Z,11.40
2018-02-27T20:43:25.616Z,11.83
2018-02-27T20:45:53.056Z,10.97
2018-02-27T20:48:20.508Z,8.77
2018-02-27T20:50:47.958Z,9.87
2018-02-27T20:53:15.404Z,8.57
2018-02-27T20:55:42.847Z,9.67
2018-02-27T20:58:10.296Z,14.93
2018-02-27T21:00:37.756Z,10.60
2018-02-27T21:03:05.207Z,10.73
2018-02-27T21:05:32.665Z,11.10
2018-02-27T21:08:00.104Z,11.90
2018-02-27T21:10:28.394Z,10.20
2018-02-27T21:12:55.816Z,9.03
2018-02-27T21:15:23.264Z,10.90
2018-02-27T21:17:51.477Z,10.00
2018-02-27T21:20:18.920Z,9.40
2018-02-27T21:22:46.355Z,9.30
2018-02-27T21:25:13.806Z,10.40
2018-02-27T21:27:42.015Z,9.37
2018-02-27T21:30:10.226Z,8.00
2018-02-27T21:32:37.721Z,7.97
2018-02-27T21:35:05.163Z,8.60
2018-02-27T21:37:33.367Z,9.20
2018-02-27T21:40:01.582Z,9.70
2018-02-27T21:42:29.016Z,6.70
2018-02-27T21:44:56.469Z,7.73
2018-02-27T21:47:23.916Z,8.30
2018-02-27T21:49:51.363Z,7.17
2018-02-27T21:52:18.808Z,8.13
2018-02-27T21:54:46.260Z,8.27
2018-02-27T21:57:13.719Z,8.53
2018-02-27T21:59:41.931Z,7.17
2018-02-27T22:02:10.148Z,7.70
2018-02-27T22:04:37.608Z,8.73
2018-02-27T22:07:05.822Z,8.80
2018-02-27T22:09:33.304Z,8.90
2018-02-27T22:12:00.720Z,10.67
2018-02-27T22:14:28.180Z,8.70
2018-02-27T22:16:55.631Z,8.73
2018-02-27T22:19:23.842Z,6.80
2018-02-27T22:21:51.345Z,7.50
2018-02-27T22:24:18.788Z,7.13
2018-02-27T22:26:47.001Z,7.63
2018-02-27T22:29:14.439Z,9.00
2018-02-27T22:31:41.892Z,6.57
2018-02-27T22:34:09.339Z,8.10
2018-02-27T22:36:36.792Z,7.50
2018-02-27T22:39:04.223Z,7.37
2018-02-27T22:41:31.663Z,7.00
2018-02-27T22:43:59.882Z,7.10
2018-02-27T22:46:27.346Z,6.93
2018-02-27T22:48:55.554Z,6.10
2018-02-27T22:51:23.768Z,6.90
2018-02-27T22:53:51.209Z,7.10
2018-02-27T22:56:18.660Z,6.87
2018-02-27T22:58:46.104Z,7.00
2018-02-27T23:01:13.560Z,6.80
2018-02-27T23:03:41.773Z,8.77
2018-02-27T23:06:09.213Z,10.70
2018-02-27T23:08:36.660Z,7.10
2018-02-27T23:11:04.105Z,8.40
2018-02-27T23:13:32.319Z,7.40
2018-02-27T23:15:59.764Z,7.60
2018-02-27T23:18:27.217Z,6.73
2018-02-27T23:20:54.653Z,7.73
2018-02-27T23:23:22.112Z,7.70
2018-02-27T23:25:51.336Z,7.80
2018-02-27T23:28:20.097Z,9.40
2018-02-27T23:30:47.592Z,6.70
2018-02-27T23:33:18.804Z,8.00
2018-02-27T23:35:47.017Z,9.77
2018-02-27T23:38:14.466Z,7.37
2018-02-27T23:40:41.916Z,7.77
2018-02-27T23:43:09.373Z,9.57
2018-02-27T23:45:36.816Z,10.50
2018-02-27T23:48:05.047Z,10.77
2018-02-27T23:50:32.508Z,9.20
2018-02-27T23:53:00.723Z,10.53
2018-02-27T23:55:28.164Z,9.30
2018-02-27T23:57:55.607Z,9.63
